Time;durP1;ratioP1;P1;durP2;ratioP2;P2;SDS_P1;SDS_P2;PMS_P1;PMS_P2;Temp;Humidity;BMP_temperature;BMP_pressure;BME280_temperature;BME280_humidity;BME280_pressure;Samples;Min_cycle;Max_cycle;Signal;HPM_P1;HPM_P2
2023/07/14 00:01:27;;;;;;;15.50;8.63;;;26.00;91.40;;;;;;5046085;28;20649;-63
2023/07/14 00:03:57;;;;;;;13.27;9.07;;;25.90;91.40;;;;;;5043884;28;20247;-61
2023/07/14 00:06:24;;;;;;;13.40;8.50;;;25.90;91.50;;;;;;5041214;28;20219;-61
2023/07/14 00:08:51;;;;;;;12.40;8.27;;;25.80;91.60;;;;;;5037052;28;20229;-61
2023/07/14 00:11:21;;;;;;;13.20;8.60;;;25.80;91.70;;;;;;5040686;28;20592;-61
2023/07/14 00:13:50;;;;;;;18.27;8.13;;;25.80;91.80;;;;;;5042231;28;20196;-61
2023/07/14 00:16:20;;;;;;;12.37;8.07;;;25.80;91.80;;;;;;5042244;28;20190;-62
2023/07/14 00:18:47;;;;;;;15.77;7.77;;;25.80;91.80;;;;;;5041822;28;20234;-63
2023/07/14 00:21:22;;;;;;;13.70;7.97;;;25.80;91.80;;;;;;5041456;28;20206;-62
2023/07/14 00:23:54;;;;;;;14.43;7.67;;;25.80;91.90;;;;;;5043489;28;20200;-62
2023/07/14 00:26:21;;;;;;;10.93;8.90;;;25.80;91.90;;;;;;5044929;28;20235;-61
2023/07/14 00:28:49;;;;;;;13.27;9.17;;;25.80;91.90;;;;;;5032309;28;20266;-61
2023/07/14 00:31:25;;;;;;;14.10;8.77;;;25.80;92.00;;;;;;5040191;28;20206;-64
2023/07/14 00:33:54;;;;;;;9.53;8.00;;;25.80;92.00;;;;;;5043466;28;20226;-61
2023/07/14 00:36:22;;;;;;;10.73;7.93;;;25.80;91.90;;;;;;5033707;28;20229;-61
2023/07/14 00:38:49;;;;;;;9.53;6.97;;;25.70;91.70;;;;;;5041391;28;20286;-62
2023/07/14 00:41:23;;;;;;;10.77;7.03;;;25.70;91.50;;;;;;5032410;28;20225;-63
2023/07/14 00:43:51;;;;;;;15.73;7.57;;;25.60;91.20;;;;;;5043492;28;20612;-62
2023/07/14 00:46:28;;;;;;;11.07;7.10;;;25.60;91.00;;;;;;5040271;28;20195;-61
2023/07/14 00:49:01;;;;;;;9.40;6.97;;;25.60;90.90;;;;;;5041983;28;20217;-61
2023/07/14 00:51:31;;;;;;;10.97;6.20;;;25.50;90.70;;;;;;5042155;28;20214;-63
2023/07/14 00:54:03;;;;;;;6.77;6.07;;;25.50;90.50;;;;;;5033806;28;20293;-62
2023/07/14 00:56:35;;;;;;;7.77;6.43;;;25.40;90.40;;;;;;5040746;28;20230;-61
2023/07/14 00:59:12;;;;;;;9.60;6.33;;;25.40;90.30;;;;;;5023383;28;20207;-61
2023/07/14 01:02:10;;;;;;;8.87;5.87;;;25.40;90.30;;;;;;5058150;28;20203;-61
2023/07/14 01:04:44;;;;;;;9.30;6.57;;;25.30;90.30;;;;;;5042466;28;20652;-61
2023/07/14 01:07:13;;;;;;;9.13;5.80;;;25.30;90.30;;;;;;5029928;28;20197;-62
2023/07/14 01:09:40;;;;;;;7.47;6.00;;;25.30;90.20;;;;;;5027454;28;20198;-61
2023/07/14 01:12:15;;;;;;;7.70;5.80;;;25.20;90.30;;;;;;5032033;28;20309;-61
2023/07/14 01:14:46;;;;;;;8.03;5.87;;;25.20;90.30;;;;;;5044559;28;20240;-61
2023/07/14 01:17:18;;;;;;;11.67;6.70;;;25.20;90.30;;;;;;5042567;28;20212;-64
2023/07/14 01:19:58;;;;;;;6.73;5.57;;;25.10;90.40;;;;;;5057940;28;20249;-62
2023/07/14 01:22:39;;;;;;;9.87;7.40;;;25.20;90.50;;;;;;5039234;28;20201;-62
2023/07/14 01:25:12;;;;;;;18.27;7.17;;;25.20;90.40;;;;;;5041708;28;20215;-61
2023/07/14 01:27:39;;;;;;;12.27;7.40;;;25.10;90.70;;;;;;5024361;28;20267;-61
2023/07/14 01:30:13;;;;;;;13.93;6.77;;;25.10;90.50;;;;;;5042806;28;20191;-61
2023/07/14 01:32:46;;;;;;;13.73;7.60;;;25.10;90.60;;;;;;5032041;28;20205;-61
2023/07/14 01:35:16;;;;;;;9.77;7.40;;;25.00;90.70;;;;;;5028202;28;20574;-61
2023/07/14 01:37:44;;;;;;;8.30;6.47;;;25.00;90.70;;;;;;5031735;28;20215;-62
2023/07/14 01:40:18;;;;;;;11.33;7.43;;;25.00;90.70;;;;;;5032810;28;20211;-64
2023/07/14 01:42:51;;;;;;;15.30;7.23;;;25.00;90.70;;;;;;5040369;28;20195;-61
2023/07/14 01:45:19;;;;;;;13.53;7.77;;;25.00;90.70;;;;;;5040774;28;20208;-65
2023/07/14 01:47:51;;;;;;;14.40;7.93;;;25.00;90.70;;;;;;5038999;28;20615;-61
2023/07/14 01:50:37;;;;;;;9.77;6.20;;;25.00;90.70;;;;;;5044864;28;20189;-61
2023/07/14 01:53:33;;;;;;;11.20;7.67;;;25.00;90.90;;;;;;5041222;28;20233;-61
2023/07/14 01:56:04;;;;;;;15.07;7.97;;;24.90;91.00;;;;;;5033983;28;20222;-61
2023/07/14 01:58:37;;;;;;;13.00;8.70;;;24.90;91.10;;;;;;5032352;28;20606;-61
2023/07/14 02:01:06;;;;;;;14.90;7.53;;;24.90;91.00;;;;;;5057588;28;20301;-61
2023/07/14 02:03:44;;;;;;;12.73;7.80;;;24.90;91.00;;;;;;5045218;28;20580;-61
2023/07/14 02:06:16;;;;;;;14.47;6.97;;;24.90;90.90;;;;;;5041742;28;20626;-61
2023/07/14 02:08:45;;;;;;;8.97;7.37;;;24.90;90.80;;;;;;5041833;28;20203;-61
2023/07/14 02:11:20;;;;;;;10.00;7.93;;;24.90;90.70;;;;;;5031995;28;20211;-61
2023/07/14 02:13:50;;;;;;;11.40;7.63;;;24.80;90.60;;;;;;5044883;28;20659;-61
2023/07/14 02:16:17;;;;;;;13.47;7.47;;;24.80;90.50;;;;;;5056287;28;20208;-61
2023/07/14 02:18:46;;;;;;;15.03;8.10;;;24.80;90.50;;;;;;5028291;28;20307;-61
2023/07/14 02:21:20;;;;;;;8.67;7.30;;;24.80;90.50;;;;;;5038393;28;20307;-62
2023/07/14 02:23:49;;;;;;;10.43;7.20;;;24.70;90.50;;;;;;5038731;28;20199;-61
2023/07/14 02:26:22;;;;;;;13.87;8.17;;;24.70;90.50;;;;;;5041892;28;20618;-61
2023/07/14 02:28:49;;;;;;;11.33;7.83;;;24.70;90.50;;;;;;5023616;28;20573;-61
2023/07/14 02:31:42;;;;;;;9.13;7.77;;;24.70;90.50;;;;;;5024517;28;20200;-61
2023/07/14 02:34:11;;;;;;;8.10;7.30;;;24.70;90.60;;;;;;5047758;28;20191;-62
2023/07/14 02:36:53;;;;;;;10.23;7.43;;;24.60;90.60;;;;;;5021769;28;20652;-61
2023/07/14 02:39:21;;;;;;;11.57;7.47;;;24.70;90.60;;;;;;5021590;28;20659;-61
2023/07/14 02:41:51;;;;;;;8.00;7.20;;;24.60;90.70;;;;;;5028964;28;20201;-61
2023/07/14 02:44:19;;;;;;;12.87;7.87;;;24.60;90.70;;;;;;5017142;28;20238;-61
2023/07/14 02:46:58;;;;;;;13.53;7.83;;;24.60;90.80;;;;;;5059880;28;20286;-61
2023/07/14 02:49:26;;;;;;;11.10;8.33;;;24.60;90.90;;;;;;5026227;28;20577;-61
2023/07/14 02:51:54;;;;;;;12.67;8.40;;;24.60;90.90;;;;;;5036646;28;20200;-61
2023/07/14 02:54:24;;;;;;;14.77;8.80;;;24.60;91.00;;;;;;5023357;28;20304;-62
2023/07/14 02:56:52;;;;;;;12.47;8.23;;;24.60;91.00;;;;;;5018119;28;20197;-61
2023/07/14 02:59:24;;;;;;;10.07;8.23;;;24.60;91.00;;;;;;5020545;28;20215;-61
2023/07/14 03:01:51;;;;;;;12.40;8.83;;;24.60;91.10;;;;;;5029786;28;20238;-61
2023/07/14 03:04:18;;;;;;;11.90;8.00;;;24.50;91.10;;;;;;5028300;28;20203;-63
2023/07/14 03:06:45;;;;;;;10.33;8.07;;;24.50;91.20;;;;;;5025234;28;20250;-62
2023/07/14 03:09:13;;;;;;;12.73;9.10;;;24.50;91.20;;;;;;5031913;28;20294;-61
2023/07/14 03:11:40;;;;;;;16.70;8.20;;;24.50;91.30;;;;;;5031604;28;20212;-61
2023/07/14 03:14:08;;;;;;;12.27;7.93;;;24.50;91.40;;;;;;5028070;28;20634;-61
2023/07/14 03:16:37;;;;;;;16.57;7.97;;;24.50;91.40;;;;;;5043102;28;20624;-61
2023/07/14 03:19:04;;;;;;;12.33;7.90;;;24.50;91.40;;;;;;5025266;28;20212;-61
2023/07/14 03:21:32;;;;;;;10.00;7.63;;;24.50;91.50;;;;;;5050931;28;20250;-65
2023/07/14 03:23:59;;;;;;;11.83;7.23;;;24.50;91.50;;;;;;5026829;28;20209;-61
2023/07/14 03:26:26;;;;;;;8.47;6.63;;;24.50;91.60;;;;;;5026846;28;20219;-61
2023/07/14 03:28:53;;;;;;;9.70;6.77;;;24.40;91.60;;;;;;5026566;28;20682;-61
2023/07/14 03:31:20;;;;;;;10.67;7.80;;;24.40;91.70;;;;;;5028415;28;20198;-62
2023/07/14 03:33:47;;;;;;;8.80;6.67;;;24.40;91.70;;;;;;5019525;28;20225;-61
2023/07/14 03:36:15;;;;;;;11.00;6.80;;;24.40;91.80;;;;;;5023584;28;20266;-66
2023/07/14 03:38:44;;;;;;;10.20;7.00;;;24.40;91.80;;;;;;5025371;28;20207;-61
2023/07/14 03:41:13;;;;;;;8.00;6.37;;;24.30;91.80;;;;;;5032508;28;20234;-61
2023/07/14 03:43:43;;;;;;;9.20;7.60;;;24.30;91.90;;;;;;5026384;28;20645;-61
2023/07/14 03:46:12;;;;;;;10.47;6.87;;;24.30;92.00;;;;;;5042698;28;20253;-62
2023/07/14 03:48:39;;;;;;;7.83;6.80;;;24.30;92.10;;;;;;5021582;28;20196;-61
2023/07/14 03:51:06;;;;;;;10.00;7.10;;;24.20;92.10;;;;;;5027687;28;20294;-61
2023/07/14 03:53:33;;;;;;;8.50;6.83;;;24.20;92.20;;;;;;5024818;28;20725;-61
2023/07/14 03:56:02;;;;;;;10.57;7.50;;;24.20;92.30;;;;;;5053918;28;20278;-63
2023/07/14 03:58:30;;;;;;;9.83;7.20;;;24.10;92.30;;;;;;5033607;28;20302;-61
2023/07/14 04:01:00;;;;;;;9.73;6.97;;;24.10;92.20;;;;;;5024394;28;20295;-61
2023/07/14 04:03:27;;;;;;;8.53;7.47;;;24.10;92.30;;;;;;5022146;28;20537;-61
2023/07/14 04:05:54;;;;;;;12.30;8.03;;;24.10;92.30;;;;;;5022027;28;20674;-60
2023/07/14 04:08:26;;;;;;;11.00;7.00;;;24.10;92.20;;;;;;5018575;28;20653;-61
2023/07/14 04:10:53;;;;;;;10.20;7.93;;;24.00;92.30;;;;;;5020668;28;20192;-62
2023/07/14 04:13:20;;;;;;;10.30;6.60;;;24.00;92.40;;;;;;5028890;28;20229;-61
2023/07/14 04:15:47;;;;;;;10.83;8.07;;;24.00;92.40;;;;;;5027637;28;20710;-61
2023/07/14 04:18:14;;;;;;;10.00;7.00;;;24.00;92.40;;;;;;5026729;28;20231;-63
2023/07/14 04:20:41;;;;;;;10.17;6.77;;;24.00;92.30;;;;;;5024026;28;20199;-60
2023/07/14 04:23:08;;;;;;;7.83;6.57;;;24.00;92.30;;;;;;5023637;28;20204;-64
2023/07/14 04:25:36;;;;;;;8.83;6.20;;;24.00;92.30;;;;;;5021980;28;20215;-61
2023/07/14 04:28:03;;;;;;;7.27;6.50;;;24.00;92.10;;;;;;5032494;28;20729;-61
2023/07/14 04:30:31;;;;;;;6.80;5.50;;;24.10;92.10;;;;;;5042614;28;20202;-61
2023/07/14 04:32:58;;;;;;;14.17;6.47;;;24.10;92.00;;;;;;5038140;28;20552;-61
2023/07/14 04:35:26;;;;;;;12.17;6.40;;;24.10;92.00;;;;;;5036417;28;20213;-62
2023/07/14 04:37:53;;;;;;;10.10;6.07;;;24.10;91.90;;;;;;5043371;28;20689;-62
2023/07/14 04:40:20;;;;;;;7.03;6.23;;;24.20;91.70;;;;;;5045079;28;20256;-61
2023/07/14 04:43:05;;;;;;;6.63;5.77;;;24.20;91.60;;;;;;5044434;28;20230;-61
2023/07/14 04:45:37;;;;;;;11.43;6.20;;;24.30;91.70;;;;;;5039126;28;20306;-64
2023/07/14 04:48:14;;;;;;;8.10;5.63;;;24.30;91.70;;;;;;5042146;28;20207;-61
2023/07/14 04:50:44;;;;;;;7.57;4.77;;;24.30;91.30;;;;;;5059608;28;20205;-61
2023/07/14 04:53:13;;;;;;;7.40;5.43;;;24.40;91.20;;;;;;5045408;28;20191;-61
2023/07/14 04:55:42;;;;;;;7.53;4.77;;;24.40;91.10;;;;;;5042447;28;20210;-61
2023/07/14 04:58:11;;;;;;;6.83;4.50;;;24.50;91.00;;;;;;5041049;28;20642;-61
2023/07/14 05:00:40;;;;;;;6.83;4.90;;;24.50;90.80;;;;;;5048626;28;20200;-61
2023/07/14 05:03:10;;;;;;;5.10;4.23;;;24.60;90.60;;;;;;5044677;28;20211;-61
2023/07/14 05:05:39;;;;;;;7.87;3.90;;;24.60;90.40;;;;;;5043039;28;20317;-61
2023/07/14 05:08:08;;;;;;;7.23;4.00;;;24.60;90.20;;;;;;5041730;28;20663;-61
2023/07/14 05:10:38;;;;;;;7.60;3.57;;;24.70;90.20;;;;;;5037194;28;20221;-61
2023/07/14 05:13:06;;;;;;;4.83;3.50;;;24.80;90.30;;;;;;5041808;28;20203;-61
2023/07/14 05:15:33;;;;;;;6.80;3.40;;;24.90;90.00;;;;;;5043967;28;20247;-61
2023/07/14 05:18:00;;;;;;;7.23;3.30;;;24.90;89.20;;;;;;5040028;28;20203;-61
2023/07/14 05:20:29;;;;;;;5.57;3.27;;;25.00;88.50;;;;;;5042934;28;20201;-61
2023/07/14 05:22:56;;;;;;;3.87;3.07;;;25.00;88.00;;;;;;5038449;28;20203;-61
2023/07/14 05:25:23;;;;;;;4.53;3.10;;;25.00;88.20;;;;;;5024040;28;20219;-61
2023/07/14 05:27:50;;;;;;;5.17;3.43;;;25.10;88.30;;;;;;5046710;28;20238;-61
2023/07/14 05:30:20;;;;;;;4.47;3.40;;;25.10;87.30;;;;;;5046088;28;20191;-62
2023/07/14 05:32:49;;;;;;;4.77;3.07;;;25.10;87.30;;;;;;5035872;28;20192;-61
2023/07/14 05:35:17;;;;;;;5.17;3.27;;;25.10;87.50;;;;;;5044190;28;20204;-62
2023/07/14 05:37:46;;;;;;;4.97;3.03;;;25.20;87.40;;;;;;5043730;28;20242;-62
2023/07/14 05:40:14;;;;;;;4.13;2.87;;;25.20;87.10;;;;;;5043328;28;20295;-62
2023/07/14 05:42:41;;;;;;;4.77;2.83;;;25.30;86.90;;;;;;5039278;28;20203;-61
2023/07/14 05:45:10;;;;;;;6.07;3.00;;;25.30;86.90;;;;;;5041762;28;20268;-61
2023/07/14 05:47:40;;;;;;;3.97;2.43;;;25.40;86.90;;;;;;5041062;28;20216;-63
2023/07/14 05:50:08;;;;;;;2.53;2.10;;;25.40;86.60;;;;;;5043300;28;20225;-61
2023/07/14 05:52:36;;;;;;;4.07;2.07;;;25.40;85.20;;;;;;5043428;28;20256;-61
2023/07/14 05:55:05;;;;;;;3.83;2.30;;;25.50;85.10;;;;;;5042527;28;20208;-61
2023/07/14 05:57:32;;;;;;;2.73;2.10;;;25.50;84.60;;;;;;5043471;28;20227;-61
2023/07/14 06:00:00;;;;;;;2.17;1.93;;;25.60;84.20;;;;;;5040743;28;20264;-61
2023/07/14 06:02:26;;;;;;;2.03;1.93;;;25.70;83.00;;;;;;5044421;28;20210;-63
2023/07/14 06:04:54;;;;;;;3.60;2.00;;;25.80;82.80;;;;;;5039399;28;20249;-61
2023/07/14 06:07:21;;;;;;;3.23;2.30;;;25.90;82.80;;;;;;5039159;28;20684;-61
2023/07/14 06:09:48;;;;;;;3.60;2.20;;;25.90;81.70;;;;;;5035168;28;20641;-61
2023/07/14 06:12:15;;;;;;;2.43;2.10;;;25.90;81.40;;;;;;5043399;28;20640;-64
2023/07/14 06:14:42;;;;;;;3.23;2.00;;;25.90;81.30;;;;;;5043950;28;20720;-61
2023/07/14 06:17:10;;;;;;;5.70;1.93;;;25.90;81.60;;;;;;5042689;28;20199;-60
2023/07/14 06:19:38;;;;;;;6.77;2.23;;;25.90;81.00;;;;;;5039477;28;20214;-64
2023/07/14 06:22:06;;;;;;;3.07;1.97;;;25.90;81.20;;;;;;5041164;28;20238;-61
2023/07/14 06:24:36;;;;;;;3.67;1.80;;;26.00;81.50;;;;;;5038797;28;20294;-69
2023/07/14 06:27:05;;;;;;;3.80;1.73;;;26.10;80.60;;;;;;5041497;28;20203;-61
2023/07/14 06:29:36;;;;;;;6.70;1.90;;;26.20;80.60;;;;;;5044927;28;20262;-62
2023/07/14 06:32:04;;;;;;;3.43;2.10;;;26.40;80.40;;;;;;5032891;28;20732;-61
2023/07/14 06:34:31;;;;;;;3.60;2.00;;;26.50;80.30;;;;;;5041256;28;20196;-61
2023/07/14 06:36:58;;;;;;;3.63;1.43;;;26.60;79.60;;;;;;5043858;28;20267;-61
2023/07/14 06:39:25;;;;;;;4.20;1.57;;;26.70;79.40;;;;;;5047981;28;20204;-61
2023/07/14 06:41:52;;;;;;;5.07;1.87;;;26.90;79.40;;;;;;5049476;28;20206;-61
2023/07/14 06:44:25;;;;;;;4.43;1.83;;;27.10;78.30;;;;;;5039806;28;20199;-61
2023/07/14 06:46:55;;;;;;;4.57;1.80;;;27.10;77.90;;;;;;5042297;28;20226;-61
2023/07/14 06:49:22;;;;;;;4.50;1.23;;;27.20;78.40;;;;;;5047819;28;20540;-61
2023/07/14 06:51:53;;;;;;;1.97;1.60;;;27.30;79.00;;;;;;5043813;28;20639;-61
2023/07/14 06:54:20;;;;;;;2.80;1.53;;;27.40;77.10;;;;;;5045814;28;20675;-61
2023/07/14 06:56:52;;;;;;;4.73;1.37;;;27.50;77.10;;;;;;5041917;28;20203;-64
2023/07/14 06:59:19;;;;;;;2.50;1.67;;;27.60;76.80;;;;;;5041257;28;20214;-62
2023/07/14 07:01:46;;;;;;;5.30;1.63;;;27.70;76.10;;;;;;5044093;28;20268;-61
2023/07/14 07:04:15;;;;;;;1.80;1.23;;;27.70;75.70;;;;;;5045760;28;20200;-63
2023/07/14 07:06:42;;;;;;;6.23;1.63;;;27.90;75.30;;;;;;5045996;28;20214;-61
2023/07/14 07:09:09;;;;;;;1.43;1.23;;;28.10;75.40;;;;;;5037828;28;20230;-61
2023/07/14 07:11:36;;;;;;;3.50;1.60;;;28.30;74.60;;;;;;5041441;28;20209;-60
2023/07/14 07:14:03;;;;;;;1.20;1.10;;;28.50;73.80;;;;;;5047728;28;20202;-60
2023/07/14 07:16:30;;;;;;;1.97;1.43;;;28.60;72.80;;;;;;5047907;28;20546;-61
2023/07/14 07:18:57;;;;;;;1.30;1.20;;;28.70;70.90;;;;;;5042182;28;20709;-61
2023/07/14 07:21:24;;;;;;;1.73;1.33;;;28.80;70.70;;;;;;5045834;28;20203;-61
2023/07/14 07:23:51;;;;;;;2.57;1.53;;;29.00;70.90;;;;;;5042909;28;20204;-61
2023/07/14 07:26:18;;;;;;;1.70;1.10;;;29.10;70.20;;;;;;5044033;28;20244;-64
2023/07/14 07:28:46;;;;;;;1.93;1.10;;;29.30;70.00;;;;;;5043971;28;20235;-61
2023/07/14 07:31:14;;;;;;;1.20;1.00;;;29.50;69.80;;;;;;5042161;28;20227;-61
2023/07/14 07:33:42;;;;;;;1.83;1.20;;;29.70;69.00;;;;;;5040528;28;20195;-62
2023/07/14 07:36:16;;;;;;;3.53;1.30;;;29.90;67.80;;;;;;5044574;28;20629;-60
2023/07/14 07:38:50;;;;;;;3.50;0.97;;;30.00;67.80;;;;;;5047071;28;20213;-62
2023/07/14 07:41:20;;;;;;;1.97;1.17;;;30.10;66.80;;;;;;5045195;28;20649;-62
2023/07/14 07:43:47;;;;;;;2.67;1.10;;;30.30;66.50;;;;;;5048272;28;20190;-61
2023/07/14 07:46:15;;;;;;;1.07;0.97;;;30.40;64.70;;;;;;5046005;28;20309;-61
2023/07/14 07:48:44;;;;;;;1.53;1.20;;;30.30;62.90;;;;;;5049560;28;20269;-63
2023/07/14 07:51:12;;;;;;;1.27;1.10;;;30.30;64.10;;;;;;5045840;28;20278;-61
2023/07/14 07:53:39;;;;;;;4.23;1.40;;;30.30;64.80;;;;;;5044679;28;20649;-63
2023/07/14 07:56:08;;;;;;;2.47;1.30;;;30.40;63.50;;;;;;5042292;28;20206;-61
2023/07/14 07:58:35;;;;;;;1.40;1.30;;;30.50;64.20;;;;;;5038811;28;20272;-61
2023/07/14 08:01:05;;;;;;;1.70;1.10;;;30.60;63.40;;;;;;5043052;28;20198;-60
2023/07/14 08:03:33;;;;;;;1.43;0.87;;;30.80;63.60;;;;;;5058819;28;20202;-61
2023/07/14 08:06:03;;;;;;;2.43;1.10;;;30.90;63.40;;;;;;5043121;28;20645;-61
2023/07/14 08:08:30;;;;;;;5.23;1.30;;;31.00;61.90;;;;;;5046193;28;20203;-62
2023/07/14 08:10:57;;;;;;;1.47;1.03;;;31.00;62.90;;;;;;5040224;28;20555;-61
2023/07/14 08:13:28;;;;;;;1.67;1.00;;;31.10;62.40;;;;;;5043293;28;20234;-65
2023/07/14 08:15:58;;;;;;;3.47;1.20;;;31.20;61.60;;;;;;5045304;28;20660;-62
2023/07/14 08:18:26;;;;;;;4.60;1.37;;;31.30;62.30;;;;;;5050709;28;20564;-63
2023/07/14 08:20:53;;;;;;;5.50;1.17;;;31.40;62.70;;;;;;5038555;28;20214;-61
2023/07/14 08:23:22;;;;;;;2.40;1.43;;;31.60;62.90;;;;;;5050793;28;20281;-61
2023/07/14 08:25:54;;;;;;;4.40;1.40;;;31.80;62.70;;;;;;5046665;28;20188;-61
2023/07/14 08:28:21;;;;;;;4.47;1.20;;;32.00;60.70;;;;;;5042993;28;20312;-61
2023/07/14 08:30:50;;;;;;;4.77;1.40;;;31.90;59.20;;;;;;5039678;28;20195;-61
2023/07/14 08:33:18;;;;;;;1.67;1.30;;;31.80;60.00;;;;;;5041806;28;20214;-61
2023/07/14 08:35:48;;;;;;;2.47;1.60;;;31.70;59.60;;;;;;5042877;28;20199;-64
2023/07/14 08:38:15;;;;;;;3.23;1.63;;;31.50;58.60;;;;;;5042650;28;20274;-62
2023/07/14 08:41:11;;;;;;;2.93;1.50;;;31.40;60.10;;;;;;5044158;28;20680;-61
2023/07/14 08:43:58;;;;;;;4.30;1.43;;;31.30;60.10;;;;;;5047718;28;20195;-61
2023/07/14 08:46:50;;;;;;;4.03;1.60;;;31.30;60.20;;;;;;5047341;28;20236;-61
2023/07/14 08:49:17;;;;;;;2.90;1.60;;;31.40;61.70;;;;;;5044701;28;20192;-62
2023/07/14 08:52:02;;;;;;;3.30;1.70;;;31.50;61.50;;;;;;5034975;28;20205;-61
2023/07/14 08:55:04;;;;;;;4.93;1.30;;;31.70;61.80;;;;;;5043476;28;20195;-61
2023/07/14 08:57:42;;;;;;;2.30;1.60;;;31.90;61.00;;;;;;5033536;28;20210;-61
2023/07/14 09:00:15;;;;;;;5.57;2.03;;;32.20;61.40;;;;;;5046390;28;20311;-62
2023/07/14 09:02:56;;;;;;;6.43;2.07;;;32.50;61.10;;;;;;5042117;28;20222;-62
2023/07/14 09:05:27;;;;;;;4.53;2.70;;;32.70;60.10;;;;;;5040968;28;20215;-62
2023/07/14 09:07:55;;;;;;;4.50;1.93;;;32.80;58.70;;;;;;5039230;28;20679;-61
2023/07/14 09:10:34;;;;;;;3.57;1.77;;;32.80;59.30;;;;;;5036610;28;20528;-63
2023/07/14 09:13:42;;;;;;;2.97;2.00;;;32.90;57.70;;;;;;5042918;28;20310;-62
2023/07/14 09:16:12;;;;;;;4.57;2.23;;;32.90;58.00;;;;;;5015192;28;20297;-62
2023/07/14 09:18:51;;;;;;;5.77;1.87;;;32.80;59.40;;;;;;5037346;28;20206;-61
2023/07/14 09:21:39;;;;;;;5.47;1.80;;;32.90;58.50;;;;;;5036350;28;20194;-65
2023/07/14 09:24:14;;;;;;;3.80;2.20;;;32.90;58.20;;;;;;5043189;28;20598;-62
2023/07/14 09:26:49;;;;;;;4.30;2.07;;;32.90;58.80;;;;;;5041827;28;20225;-61
2023/07/14 09:29:28;;;;;;;9.40;2.50;;;33.00;58.60;;;;;;5039868;28;20326;-62
2023/07/14 09:32:20;;;;;;;3.90;2.03;;;33.00;57.90;;;;;;5037001;28;20651;-63
2023/07/14 09:34:58;;;;;;;7.07;2.50;;;33.00;57.70;;;;;;5037243;28;20201;-62
2023/07/14 09:37:41;;;;;;;6.60;2.00;;;33.00;57.90;;;;;;5044457;28;20203;-61
2023/07/14 09:40:17;;;;;;;3.83;2.27;;;33.10;58.40;;;;;;5044914;28;20248;-63
2023/07/14 09:42:58;;;;;;;6.93;2.20;;;33.20;58.10;;;;;;5040443;28;20281;-63
2023/07/14 09:45:33;;;;;;;3.97;2.13;;;33.40;57.40;;;;;;5040784;28;20616;-62
2023/07/14 09:48:03;;;;;;;8.37;2.37;;;33.30;56.50;;;;;;5040083;28;20319;-62
2023/07/14 09:50:34;;;;;;;6.60;2.87;;;33.30;57.40;;;;;;5043656;28;20282;-62
2023/07/14 09:53:07;;;;;;;5.70;2.07;;;33.40;57.20;;;;;;5044097;28;20199;-62
2023/07/14 09:55:46;;;;;;;5.13;1.97;;;33.50;57.80;;;;;;5041007;28;20529;-62
2023/07/14 09:58:19;;;;;;;3.73;2.10;;;33.50;57.10;;;;;;5042008;28;20697;-62
2023/07/14 10:00:49;;;;;;;5.57;2.40;;;33.70;58.20;;;;;;5040721;28;20195;-62
2023/07/14 10:03:18;;;;;;;7.30;2.50;;;33.90;57.40;;;;;;5042391;28;20246;-62
2023/07/14 10:06:13;;;;;;;5.47;2.20;;;34.00;57.10;;;;;;5039782;28;20707;-62
2023/07/14 10:08:48;;;;;;;4.23;2.60;;;34.10;56.90;;;;;;5040601;28;20586;-62
2023/07/14 10:11:35;;;;;;;4.10;2.40;;;34.20;56.80;;;;;;5040136;28;20212;-62
2023/07/14 10:14:17;;;;;;;7.47;2.33;;;34.40;56.30;;;;;;5040174;28;20591;-63
2023/07/14 10:16:45;;;;;;;4.73;2.13;;;34.50;54.70;;;;;;5042115;28;20206;-66
2023/07/14 10:19:18;;;;;;;4.93;2.00;;;34.60;54.50;;;;;;5044415;28;20203;-63
2023/07/14 10:21:57;;;;;;;9.60;2.10;;;34.50;55.00;;;;;;5042647;28;20637;-62
2023/07/14 10:24:24;;;;;;;6.57;2.50;;;34.50;54.40;;;;;;5040390;28;20187;-62
2023/07/14 10:26:56;;;;;;;9.03;2.53;;;34.50;54.00;;;;;;5040865;28;20215;-61
2023/07/14 10:29:26;;;;;;;5.73;2.67;;;34.20;54.20;;;;;;5036976;28;20737;-62
2023/07/14 10:32:07;;;;;;;5.63;2.60;;;34.10;54.80;;;;;;5044745;28;20191;-62
2023/07/14 10:34:55;;;;;;;6.03;2.30;;;34.00;54.40;;;;;;5042000;28;20234;-63
2023/07/14 10:37:37;;;;;;;4.70;2.00;;;34.00;55.20;;;;;;5041684;28;20313;-62
2023/07/14 10:40:14;;;;;;;3.20;2.07;;;34.00;55.30;;;;;;5041365;28;20202;-62
2023/07/14 10:42:52;;;;;;;4.33;2.00;;;34.10;54.40;;;;;;5041987;28;20278;-62
2023/07/14 10:45:20;;;;;;;5.27;2.53;;;34.10;54.30;;;;;;5035626;28;20256;-64
2023/07/14 10:47:56;;;;;;;6.67;2.43;;;34.10;55.20;;;;;;5039503;28;20658;-62
2023/07/14 10:50:46;;;;;;;8.73;2.67;;;34.20;55.40;;;;;;5042216;28;20232;-62
2023/07/14 10:53:26;;;;;;;5.53;2.23;;;34.40;55.60;;;;;;5043125;28;20666;-63
2023/07/14 10:55:58;;;;;;;4.57;2.07;;;34.50;54.10;;;;;;5037160;28;20227;-64
2023/07/14 10:58:39;;;;;;;6.60;2.50;;;34.60;54.30;;;;;;5042374;28;20190;-62
2023/07/14 11:01:15;;;;;;;4.10;2.50;;;34.70;53.50;;;;;;5041847;28;20286;-62
2023/07/14 11:03:48;;;;;;;6.23;2.70;;;34.80;54.60;;;;;;5044700;28;20198;-62
2023/07/14 11:06:23;;;;;;;8.00;3.10;;;34.90;54.20;;;;;;5044365;28;20199;-62
2023/07/14 11:08:54;;;;;;;4.93;2.20;;;34.90;52.80;;;;;;5033702;28;20534;-62
2023/07/14 11:11:24;;;;;;;6.37;3.17;;;34.90;52.50;;;;;;5047388;28;20252;-62
2023/07/14 11:14:11;;;;;;;4.47;2.57;;;34.90;52.80;;;;;;5044153;28;20203;-62
2023/07/14 11:17:04;;;;;;;9.10;3.07;;;34.80;53.30;;;;;;5041610;28;20237;-62
2023/07/14 11:20:01;;;;;;;3.23;2.60;;;34.90;54.30;;;;;;5008852;28;20215;-62
2023/07/14 11:22:34;;;;;;;6.07;2.77;;;35.10;54.00;;;;;;5041971;28;20290;-62
2023/07/14 11:25:05;;;;;;;4.50;2.57;;;35.30;53.50;;;;;;5041672;28;20570;-62
2023/07/14 11:27:37;;;;;;;6.97;3.17;;;35.30;51.50;;;;;;5043898;28;20273;-62
2023/07/14 11:30:18;;;;;;;6.60;2.57;;;35.20;53.10;;;;;;5041033;28;20208;-62
2023/07/14 11:33:09;;;;;;;6.13;2.90;;;35.20;53.80;;;;;;5040734;28;20191;-63
2023/07/14 11:36:00;;;;;;;8.00;2.77;;;35.20;53.60;;;;;;5043232;28;20698;-62
2023/07/14 11:38:43;;;;;;;5.57;3.10;;;35.10;52.80;;;;;;5045789;28;20277;-62
2023/07/14 11:41:10;;;;;;;7.07;2.88;;;34.80;53.30;;;;;;5042510;28;20207;-62
2023/07/14 11:43:38;;;;;;;6.37;3.10;;;34.70;53.50;;;;;;5044012;28;20272;-64
2023/07/14 11:46:09;;;;;;;5.90;3.13;;;34.70;54.00;;;;;;5042012;28;20262;-64
2023/07/14 11:48:50;;;;;;;4.40;2.95;;;34.90;54.60;;;;;;5048896;28;20217;-62
2023/07/14 11:51:19;;;;;;;16.35;3.60;;;35.20;54.70;;;;;;5046627;28;20209;-62
2023/07/14 11:54:19;;;;;;;8.48;3.15;;;35.50;53.90;;;;;;5040310;28;20265;-62
2023/07/14 11:56:57;;;;;;;3.78;2.75;;;35.50;51.60;;;;;;5040911;28;20622;-64
2023/07/14 11:59:32;;;;;;;7.90;3.40;;;35.60;51.90;;;;;;5043002;28;20556;-62
2023/07/14 12:02:26;;;;;;;7.20;3.27;;;35.60;52.10;;;;;;5043606;28;20194;-62
2023/07/14 12:05:14;;;;;;;10.95;3.30;;;35.50;52.10;;;;;;5048376;28;20209;-62
2023/07/14 12:08:05;;;;;;;8.02;3.47;;;35.50;52.20;;;;;;5040726;28;20619;-62
2023/07/14 12:10:39;;;;;;;11.32;4.53;;;35.40;53.30;;;;;;5044285;28;20249;-73
2023/07/14 12:13:21;;;;;;;6.75;3.15;;;35.40;53.30;;;;;;5044808;28;20217;-62
2023/07/14 12:16:11;;;;;;;5.93;3.10;;;35.50;53.80;;;;;;5041860;28;20187;-62
2023/07/14 12:19:03;;;;;;;7.20;3.20;;;35.60;52.70;;;;;;5040943;28;20673;-63
2023/07/14 12:21:42;;;;;;;8.45;3.17;;;35.70;52.70;;;;;;5033525;28;20654;-62
2023/07/14 12:24:16;;;;;;;7.03;3.25;;;35.80;52.70;;;;;;5040747;28;20207;-62
2023/07/14 12:26:49;;;;;;;6.05;3.05;;;35.90;52.80;;;;;;5045778;28;20228;-62
2023/07/14 12:29:18;;;;;;;6.43;3.20;;;35.90;50.90;;;;;;5044426;28;20319;-62
2023/07/14 12:31:51;;;;;;;6.72;3.40;;;35.90;51.30;;;;;;5042910;28;20198;-65
2023/07/14 12:34:20;;;;;;;9.03;3.77;;;35.80;51.00;;;;;;5038718;28;20286;-64
2023/07/14 12:36:47;;;;;;;7.63;3.15;;;35.50;51.20;;;;;;5044088;28;20234;-62
2023/07/14 12:39:15;;;;;;;6.95;3.03;;;35.40;52.30;;;;;;5038927;28;20578;-62
2023/07/14 12:41:49;;;;;;;8.10;3.30;;;35.30;52.70;;;;;;5047645;28;20203;-64
2023/07/14 12:44:31;;;;;;;5.30;3.33;;;35.20;53.00;;;;;;5046236;28;20199;-62
2023/07/14 12:46:59;;;;;;;9.37;3.57;;;35.10;53.50;;;;;;5047611;28;20310;-62
2023/07/14 12:49:26;;;;;;;9.10;3.47;;;35.10;53.50;;;;;;5045943;28;20202;-62
2023/07/14 12:51:54;;;;;;;8.82;3.42;;;35.10;53.70;;;;;;5043109;28;20689;-62
2023/07/14 12:54:27;;;;;;;4.97;3.08;;;35.30;53.10;;;;;;5044115;28;20269;-62
2023/07/14 12:56:55;;;;;;;5.20;3.17;;;35.30;52.60;;;;;;5044490;28;20277;-62
2023/07/14 12:59:23;;;;;;;10.13;3.42;;;35.30;52.70;;;;;;5040070;28;20196;-62
2023/07/14 13:01:50;;;;;;;6.40;3.65;;;35.30;52.60;;;;;;5043957;28;20230;-65
2023/07/14 13:04:21;;;;;;;6.20;3.13;;;35.30;53.20;;;;;;5044240;28;20214;-62
2023/07/14 13:06:57;;;;;;;5.53;2.77;;;35.30;51.10;;;;;;5039256;28;20207;-62
2023/07/14 13:09:26;;;;;;;15.02;3.90;;;35.20;51.70;;;;;;5038638;28;20207;-63